Time;durP1;ratioP1;P1;durP2;ratioP2;P2;SDS_P1;SDS_P2;PMS_P1;PMS_P2;Temp;Humidity;BMP_temperature;BMP_pressure;BME280_temperature;BME280_humidity;BME280_pressure;Samples;Min_cycle;Max_cycle;Signal;HPM_P1;HPM_P2
2021/10/17 00:01:00;;;;;;;4.30;2.63;;;22.00;53.20;;;;;;5088429;28;20454;-81
2021/10/17 00:03:26;;;;;;;2.40;1.80;;;22.00;53.20;;;;;;5075198;28;20421;-81
2021/10/17 00:05:52;;;;;;;2.40;1.50;;;22.00;53.20;;;;;;5089215;28;20452;-81
2021/10/17 00:08:23;;;;;;;2.13;1.93;;;22.00;53.20;;;;;;5073180;28;20791;-81
2021/10/17 00:10:51;;;;;;;2.73;1.90;;;22.00;53.20;;;;;;5088063;28;20170;-81
2021/10/17 00:13:17;;;;;;;3.33;1.77;;;22.00;53.20;;;;;;5085084;28;20460;-81
2021/10/17 00:15:43;;;;;;;2.00;1.80;;;22.00;53.20;;;;;;5069863;28;20452;-81
2021/10/17 00:18:12;;;;;;;1.77;1.60;;;22.00;53.20;;;;;;5085540;28;20415;-81
2021/10/17 00:20:41;;;;;;;2.20;1.70;;;22.00;53.20;;;;;;5089343;28;20186;-81
2021/10/17 00:23:13;;;;;;;2.03;1.83;;;22.00;53.20;;;;;;5091111;28;20413;-81
2021/10/17 00:25:41;;;;;;;2.63;1.93;;;22.00;53.20;;;;;;5072530;28;20435;-81
2021/10/17 00:28:10;;;;;;;1.97;1.60;;;22.00;53.20;;;;;;5091814;28;20427;-81
2021/10/17 00:30:41;;;;;;;2.60;1.93;;;22.00;53.20;;;;;;5073277;28;20431;-81
2021/10/17 00:33:10;;;;;;;2.43;2.23;;;22.00;53.20;;;;;;5090940;28;20466;-81
2021/10/17 00:35:36;;;;;;;1.83;1.53;;;22.00;53.20;;;;;;5075170;28;20455;-81
2021/10/17 00:38:05;;;;;;;2.00;1.80;;;22.00;53.20;;;;;;5060860;28;20516;-81
2021/10/17 00:40:37;;;;;;;2.10;1.90;;;22.00;53.20;;;;;;5070160;28;20433;-81
2021/10/17 00:43:06;;;;;;;3.53;2.43;;;22.00;53.20;;;;;;5068097;28;20420;-81
2021/10/17 00:45:37;;;;;;;2.40;1.83;;;22.00;53.20;;;;;;5070234;28;20422;-81
2021/10/17 00:48:05;;;;;;;2.17;1.97;;;22.00;53.20;;;;;;5070278;28;20422;-81
2021/10/17 00:50:34;;;;;;;2.20;1.80;;;22.00;53.20;;;;;;5070811;28;20416;-81
2021/10/17 00:53:03;;;;;;;2.33;1.80;;;22.00;53.80;;;;;;5053884;28;20210;-81
2021/10/17 00:55:29;;;;;;;1.83;1.70;;;22.00;53.20;;;;;;5087638;28;20400;-80
2021/10/17 00:58:02;;;;;;;2.33;1.60;;;22.00;53.20;;;;;;5073916;28;20409;-81
2021/10/17 01:00:28;;;;;;;3.10;2.00;;;22.00;53.20;;;;;;5091919;28;20697;-81
2021/10/17 01:02:54;;;;;;;1.97;1.63;;;22.00;53.20;;;;;;5073941;28;20416;-81
2021/10/17 01:05:20;;;;;;;2.10;1.80;;;22.00;53.20;;;;;;5074243;28;20186;-81
2021/10/17 01:07:47;;;;;;;2.10;1.90;;;22.00;53.20;;;;;;5057794;28;20182;-81
2021/10/17 01:10:16;;;;;;;2.93;1.80;;;22.00;53.20;;;;;;5074166;28;20495;-81
2021/10/17 01:12:43;;;;;;;1.63;1.53;;;22.00;53.20;;;;;;5073074;28;20424;-81
2021/10/17 01:15:11;;;;;;;2.40;1.83;;;22.00;53.20;;;;;;5074062;28;20415;-81
2021/10/17 01:17:40;;;;;;;2.20;1.70;;;22.00;53.20;;;;;;5073640;28;20428;-81
2021/10/17 01:20:08;;;;;;;1.90;1.70;;;22.00;53.20;;;;;;5073133;28;20417;-81
2021/10/17 01:22:41;;;;;;;2.37;1.70;;;22.00;53.20;;;;;;5091421;28;20479;-81
2021/10/17 01:25:08;;;;;;;2.77;1.87;;;22.00;53.20;;;;;;5073415;28;20419;-81
2021/10/17 01:27:34;;;;;;;1.60;1.47;;;22.00;53.20;;;;;;5056601;28;20488;-81
2021/10/17 01:29:59;;;;;;;2.03;1.53;;;22.00;53.30;;;;;;5083081;28;20400;-81
2021/10/17 01:32:25;;;;;;;2.10;1.70;;;22.00;53.30;;;;;;5073633;28;20194;-81
2021/10/17 01:34:51;;;;;;;5.03;2.17;;;22.00;53.30;;;;;;5072700;28;20282;-81
2021/10/17 01:37:17;;;;;;;3.10;2.03;;;22.00;53.30;;;;;;5073428;28;20216;-81
2021/10/17 01:39:43;;;;;;;2.37;2.17;;;22.00;53.30;;;;;;5075376;28;20178;-80
2021/10/17 01:42:13;;;;;;;2.40;1.73;;;22.00;53.30;;;;;;5093990;28;20166;-80
2021/10/17 01:44:39;;;;;;;2.30;1.63;;;22.00;53.30;;;;;;5077233;28;20444;-80
2021/10/17 01:47:08;;;;;;;2.10;1.40;;;22.00;53.30;;;;;;5094092;28;20450;-79
2021/10/17 01:49:39;;;;;;;2.33;1.70;;;22.00;53.30;;;;;;5094211;28;20510;-81
2021/10/17 01:52:09;;;;;;;2.70;1.97;;;22.00;53.30;;;;;;5094202;28;20635;-80
2021/10/17 01:54:41;;;;;;;2.20;1.80;;;22.00;53.30;;;;;;5094274;28;20459;-80
2021/10/17 01:57:08;;;;;;;2.90;1.83;;;22.00;53.30;;;;;;5076274;28;20444;-80
2021/10/17 01:59:35;;;;;;;2.43;1.80;;;22.00;53.30;;;;;;5077275;28;20404;-80
2021/10/17 02:02:13;;;;;;;2.00;1.80;;;22.00;53.30;;;;;;5076731;28;20436;-80
2021/10/17 02:04:44;;;;;;;2.23;1.97;;;22.00;53.30;;;;;;5076821;28;20400;-80
2021/10/17 02:07:12;;;;;;;1.50;1.37;;;22.00;53.30;;;;;;5061397;28;20466;-80
2021/10/17 02:09:42;;;;;;;2.57;1.93;;;22.00;53.90;;;;;;5094968;28;20435;-80
2021/10/17 02:12:21;;;;;;;2.20;1.80;;;22.00;53.30;;;;;;5076052;28;20406;-80
2021/10/17 02:19:19;;;;;;;3.07;1.80;;;22.00;53.30;;;;;;5034531;28;20416;-80
2021/10/17 02:21:47;;;;;;;2.13;1.60;;;22.00;53.20;;;;;;5034177;28;20442;-80
2021/10/17 02:24:15;;;;;;;2.50;2.30;;;21.90;53.10;;;;;;5017449;28;20423;-81
2021/10/17 02:26:42;;;;;;;2.77;2.20;;;21.90;53.10;;;;;;5033794;28;20495;-81
2021/10/17 02:29:11;;;;;;;3.50;2.20;;;22.00;53.00;;;;;;5001339;28;20434;-80
2021/10/17 02:31:40;;;;;;;2.47;2.27;;;21.90;52.90;;;;;;5017507;28;20423;-80
2021/10/17 02:34:07;;;;;;;2.50;2.30;;;21.90;52.90;;;;;;5033932;28;20446;-80
2021/10/17 02:36:35;;;;;;;2.47;2.27;;;21.90;52.80;;;;;;5034916;28;20474;-80
2021/10/17 02:39:07;;;;;;;2.47;2.13;;;22.00;52.80;;;;;;5034009;28;20858;-80
2021/10/17 02:41:36;;;;;;;3.10;2.80;;;22.00;52.80;;;;;;5018226;28;20420;-80
2021/10/17 02:44:04;;;;;;;2.60;2.20;;;22.00;52.70;;;;;;5034591;28;20415;-80
2021/10/17 02:46:35;;;;;;;2.60;2.37;;;22.00;52.60;;;;;;5033620;28;20416;-80
2021/10/17 02:49:04;;;;;;;2.83;2.60;;;22.00;52.60;;;;;;5017862;28;20430;-81
2021/10/17 02:51:38;;;;;;;3.23;2.10;;;21.90;52.50;;;;;;5029538;28;20428;-80
2021/10/17 02:54:07;;;;;;;3.00;2.70;;;21.90;52.50;;;;;;5074502;28;20465;-79
2021/10/17 02:56:33;;;;;;;4.90;2.80;;;21.90;52.40;;;;;;5074803;28;20485;-80
2021/10/17 02:59:00;;;;;;;3.17;2.87;;;21.90;52.30;;;;;;5057880;28;20469;-80
2021/10/17 03:01:29;;;;;;;4.43;2.97;;;21.90;52.40;;;;;;5074459;28;20405;-80
2021/10/17 03:03:55;;;;;;;3.97;2.73;;;21.90;52.30;;;;;;5076133;28;20404;-80
2021/10/17 03:06:31;;;;;;;4.47;2.90;;;22.00;52.30;;;;;;5058044;28;20428;-80
2021/10/17 03:09:01;;;;;;;3.00;2.70;;;21.90;52.30;;;;;;5074849;28;20461;-80
2021/10/17 03:11:28;;;;;;;2.60;2.40;;;22.00;52.40;;;;;;5074735;28;20410;-80
2021/10/17 03:14:08;;;;;;;3.23;2.93;;;21.90;52.20;;;;;;5075163;28;20433;-80
2021/10/17 03:16:45;;;;;;;3.20;2.90;;;21.90;52.30;;;;;;5058502;28;20440;-80
2021/10/17 03:19:49;;;;;;;2.50;2.30;;;21.90;52.30;;;;;;5074890;28;20443;-80
2021/10/17 03:22:18;;;;;;;3.37;2.57;;;21.90;52.30;;;;;;5057294;28;20449;-80
2021/10/17 03:24:48;;;;;;;3.43;3.13;;;21.90;52.30;;;;;;5074566;28;20413;-80
2021/10/17 03:27:14;;;;;;;3.63;3.33;;;21.90;52.20;;;;;;5057108;28;20413;-80
2021/10/17 03:29:43;;;;;;;3.00;2.63;;;21.90;52.20;;;;;;5075699;28;20914;-80
2021/10/17 03:32:10;;;;;;;3.50;3.00;;;21.90;52.20;;;;;;5074389;28;20429;-80
2021/10/17 03:34:43;;;;;;;2.83;2.53;;;21.90;52.20;;;;;;5074432;28;20497;-80
2021/10/17 03:37:11;;;;;;;2.97;2.67;;;21.90;52.20;;;;;;5077990;28;20425;-80
2021/10/17 03:39:38;;;;;;;3.80;3.43;;;21.90;52.20;;;;;;5081263;28;20481;-80
2021/10/17 03:42:11;;;;;;;3.90;3.40;;;21.90;52.00;;;;;;5080225;28;20426;-80
2021/10/17 03:44:43;;;;;;;5.13;2.90;;;21.90;51.90;;;;;;5080636;28;20409;-79
2021/10/17 03:47:11;;;;;;;3.70;3.10;;;21.90;51.70;;;;;;5080164;28;20463;-79
2021/10/17 03:49:40;;;;;;;3.60;3.30;;;21.90;51.70;;;;;;5063712;28;20421;-80
2021/10/17 03:52:06;;;;;;;2.90;2.70;;;21.90;51.80;;;;;;5080635;28;20413;-79
2021/10/17 03:54:41;;;;;;;3.60;3.30;;;21.80;51.70;;;;;;5080992;28;20457;-80
2021/10/17 03:57:10;;;;;;;3.80;3.10;;;21.80;51.50;;;;;;5081461;28;20405;-79
2021/10/17 03:59:36;;;;;;;3.43;3.13;;;21.80;51.40;;;;;;5080476;28;20401;-80
2021/10/17 04:02:03;;;;;;;4.40;3.23;;;21.80;51.50;;;;;;5081053;28;20416;-80
2021/10/17 04:04:31;;;;;;;4.20;3.67;;;21.80;51.40;;;;;;5063535;28;20422;-80
2021/10/17 04:07:03;;;;;;;3.70;3.40;;;21.80;51.40;;;;;;5080354;28;20417;-80
2021/10/17 04:09:39;;;;;;;3.30;2.97;;;21.80;51.40;;;;;;5080468;28;20425;-80
2021/10/17 04:12:09;;;;;;;3.50;2.93;;;21.80;51.40;;;;;;5046830;28;20925;-79
2021/10/17 04:14:43;;;;;;;2.63;2.43;;;21.80;51.40;;;;;;5081520;28;21003;-80
2021/10/17 04:17:09;;;;;;;3.83;3.27;;;21.80;51.50;;;;;;5079795;28;20425;-80
2021/10/17 04:19:39;;;;;;;3.40;3.10;;;21.80;51.60;;;;;;5080976;28;20428;-80
2021/10/17 04:22:07;;;;;;;5.20;3.00;;;21.80;51.60;;;;;;5080241;28;20424;-79
2021/10/17 04:24:35;;;;;;;3.40;2.67;;;21.70;51.60;;;;;;5079080;28;20414;-79
2021/10/17 04:27:02;;;;;;;3.40;2.87;;;21.70;51.60;;;;;;5080721;28;20437;-80
2021/10/17 04:29:28;;;;;;;3.60;3.20;;;21.70;51.60;;;;;;5079966;28;20409;-80
2021/10/17 04:32:00;;;;;;;3.40;3.07;;;21.70;51.70;;;;;;5080190;28;20417;-80
2021/10/17 04:34:31;;;;;;;3.63;2.80;;;21.80;51.80;;;;;;5080653;28;20832;-80
2021/10/17 04:37:05;;;;;;;3.53;3.23;;;21.80;51.80;;;;;;5064357;28;20425;-80
2021/10/17 04:39:39;;;;;;;4.20;3.10;;;21.80;51.90;;;;;;5077771;28;20416;-80
2021/10/17 04:42:19;;;;;;;3.70;3.40;;;21.80;51.90;;;;;;5081499;28;20390;-80
2021/10/17 04:44:45;;;;;;;2.63;2.43;;;21.70;51.90;;;;;;5080664;28;20405;-79
2021/10/17 04:47:17;;;;;;;2.87;2.63;;;21.80;51.90;;;;;;5080117;28;20512;-79
2021/10/17 04:49:46;;;;;;;3.13;2.83;;;21.80;52.00;;;;;;5077835;28;20412;-80
2021/10/17 04:52:15;;;;;;;2.80;2.57;;;21.80;51.90;;;;;;5076874;28;20448;-79
2021/10/17 04:54:43;;;;;;;3.27;2.80;;;21.80;52.00;;;;;;5076971;28;20453;-80
2021/10/17 04:57:17;;;;;;;4.10;2.93;;;21.80;52.00;;;;;;5077372;28;20416;-79
2021/10/17 04:59:43;;;;;;;3.57;2.63;;;21.80;52.00;;;;;;5077545;28;20429;-79
2021/10/17 05:02:19;;;;;;;3.40;2.97;;;21.80;52.00;;;;;;5077634;28;20425;-79
2021/10/17 05:04:47;;;;;;;2.53;2.30;;;21.80;51.90;;;;;;5061924;28;20420;-79
2021/10/17 05:07:13;;;;;;;3.30;3.00;;;21.80;51.90;;;;;;5077284;28;20413;-80
2021/10/17 05:09:45;;;;;;;3.30;2.70;;;21.80;51.90;;;;;;5077781;28;20413;-80
2021/10/17 05:12:11;;;;;;;3.20;2.00;;;21.80;51.90;;;;;;5076533;28;20175;-79
2021/10/17 05:14:36;;;;;;;3.10;2.60;;;21.80;51.90;;;;;;5077206;28;20460;-79
2021/10/17 05:17:11;;;;;;;2.83;2.50;;;21.80;52.00;;;;;;5077627;28;20205;-80
2021/10/17 05:19:39;;;;;;;3.13;2.83;;;21.90;52.00;;;;;;5076710;28;20181;-80
2021/10/17 05:22:40;;;;;;;3.80;2.90;;;21.80;52.00;;;;;;5076392;28;20405;-80
2021/10/17 05:25:19;;;;;;;3.20;2.90;;;21.80;52.00;;;;;;5075570;28;20412;-80
2021/10/17 05:27:44;;;;;;;2.80;2.60;;;21.80;52.00;;;;;;5074647;28;20413;-79
2021/10/17 05:30:11;;;;;;;3.17;2.60;;;21.80;52.00;;;;;;5075479;28;20420;-79
2021/10/17 05:32:41;;;;;;;3.00;2.80;;;21.80;52.00;;;;;;5075705;28;20410;-80
2021/10/17 05:35:09;;;;;;;3.10;2.67;;;21.80;52.00;;;;;;5075436;28;20460;-80
2021/10/17 05:37:37;;;;;;;2.80;2.57;;;21.90;52.10;;;;;;5058640;28;20441;-79
2021/10/17 05:43:30;;;;;;;2.57;2.37;;;21.90;52.10;;;;;;5075759;28;20381;-79
2021/10/17 05:46:21;;;;;;;3.13;2.83;;;21.80;52.10;;;;;;5059372;28;20456;-79
2021/10/17 05:48:49;;;;;;;2.47;2.20;;;21.90;52.10;;;;;;5075243;28;20401;-80
2021/10/17 05:51:15;;;;;;;2.40;2.20;;;21.90;52.10;;;;;;5092725;28;20420;-79
2021/10/17 05:53:43;;;;;;;2.83;2.53;;;21.90;52.10;;;;;;5095734;28;20448;-80
2021/10/17 05:56:09;;;;;;;2.53;2.33;;;21.90;52.10;;;;;;5096103;28;20214;-80
2021/10/17 05:58:34;;;;;;;2.80;2.57;;;21.90;52.10;;;;;;5097088;28;20405;-80
2021/10/17 06:01:00;;;;;;;2.63;2.43;;;21.90;52.10;;;;;;5096092;28;20174;-80
2021/10/17 06:03:26;;;;;;;2.87;2.67;;;22.00;52.20;;;;;;5077944;28;20265;-79
2021/10/17 06:05:52;;;;;;;2.20;2.00;;;22.00;52.20;;;;;;5078422;28;20182;-80
2021/10/17 06:08:19;;;;;;;3.03;2.47;;;22.00;52.20;;;;;;5078409;28;20210;-80
2021/10/17 06:14:01;;;;;;;2.13;1.93;;;22.00;52.10;;;;;;5074473;28;20449;-80
2021/10/17 06:16:29;;;;;;;3.07;2.20;;;22.00;52.20;;;;;;5077215;28;20424;-80
2021/10/17 06:19:01;;;;;;;3.20;2.60;;;22.00;52.20;;;;;;5077440;28;20937;-80
2021/10/17 06:21:26;;;;;;;5.50;2.37;;;22.00;52.20;;;;;;5060607;28;20559;-81
2021/10/17 06:23:52;;;;;;;3.20;1.83;;;22.00;52.20;;;;;;5095033;28;20408;-80
2021/10/17 06:26:18;;;;;;;2.73;2.53;;;22.00;52.10;;;;;;5095944;28;20226;-80
2021/10/17 06:28:50;;;;;;;3.40;3.10;;;22.00;52.10;;;;;;5095978;28;20177;-80
2021/10/17 06:31:18;;;;;;;2.60;2.30;;;22.10;52.20;;;;;;5077643;28;20216;-80
2021/10/17 06:33:44;;;;;;;2.93;2.67;;;22.10;52.20;;;;;;5096597;28;20513;-80
2021/10/17 06:36:10;;;;;;;2.73;2.50;;;22.10;52.10;;;;;;5096086;28;20439;-80
2021/10/17 06:38:39;;;;;;;3.23;2.27;;;22.00;52.10;;;;;;5096581;28;20158;-80
2021/10/17 06:41:13;;;;;;;4.30;2.80;;;22.10;52.10;;;;;;5079018;28;20159;-80
2021/10/17 06:43:42;;;;;;;4.17;2.90;;;22.00;52.00;;;;;;5096006;28;20424;-80
2021/10/17 06:46:07;;;;;;;3.53;3.23;;;22.00;52.00;;;;;;5116732;28;20411;-80
2021/10/17 06:48:42;;;;;;;2.43;2.10;;;22.00;52.00;;;;;;5117014;28;20420;-80
2021/10/17 06:51:08;;;;;;;4.37;2.93;;;22.00;52.00;;;;;;5117202;28;20181;-80
2021/10/17 06:53:34;;;;;;;3.20;2.90;;;22.00;52.00;;;;;;5099419;28;20455;-80
2021/10/17 06:56:00;;;;;;;2.70;2.50;;;22.00;52.00;;;;;;5116714;28;20395;-80
2021/10/17 06:58:26;;;;;;;2.83;2.47;;;22.00;52.00;;;;;;5096373;28;20441;-79
2021/10/17 07:00:57;;;;;;;2.90;2.37;;;22.00;51.90;;;;;;5097630;28;20182;-79
2021/10/17 07:03:25;;;;;;;3.27;2.60;;;22.00;51.90;;;;;;5115488;28;20193;-79
2021/10/17 07:05:57;;;;;;;5.33;3.43;;;22.00;51.90;;;;;;5096358;28;20418;-79
2021/10/17 07:08:29;;;;;;;3.00;2.70;;;22.00;51.90;;;;;;5114338;28;20411;-81
2021/10/17 07:10:57;;;;;;;3.13;2.83;;;22.00;51.90;;;;;;5095036;28;20413;-79
2021/10/17 07:13:32;;;;;;;3.47;2.90;;;22.00;51.90;;;;;;5086566;28;20519;-81
2021/10/17 07:15:58;;;;;;;3.23;2.80;;;22.00;51.90;;;;;;5086587;28;21002;-79
2021/10/17 07:18:23;;;;;;;3.20;2.90;;;22.00;51.90;;;;;;5112490;28;20576;-80
2021/10/17 07:20:53;;;;;;;3.37;2.80;;;22.00;51.90;;;;;;5091778;28;20393;-79
2021/10/17 07:26:42;;;;;;;4.20;2.90;;;22.10;51.90;;;;;;5101309;28;20416;-80
2021/10/17 07:29:07;;;;;;;3.80;2.60;;;22.00;51.90;;;;;;5082431;28;20428;-82
2021/10/17 07:31:33;;;;;;;3.40;2.73;;;22.00;51.90;;;;;;5087626;28;20452;-80
2021/10/17 07:34:09;;;;;;;3.03;2.60;;;22.00;51.90;;;;;;5090695;28;20228;-80
2021/10/17 07:36:43;;;;;;;3.17;2.47;;;22.10;52.00;;;;;;5087954;28;20255;-80
2021/10/17 07:39:18;;;;;;;3.47;2.70;;;22.10;52.00;;;;;;5086023;28;20416;-81
2021/10/17 07:41:52;;;;;;;2.70;2.50;;;22.00;51.90;;;;;;5049096;28;20410;-79
2021/10/17 07:44:18;;;;;;;2.67;2.33;;;22.10;52.00;;;;;;5075380;28;20417;-80
2021/10/17 07:46:45;;;;;;;2.63;2.40;;;22.10;52.00;;;;;;5080195;28;20401;-80
2021/10/17 07:49:13;;;;;;;2.57;2.37;;;22.10;51.90;;;;;;5067192;28;20472;-81
2021/10/17 07:51:42;;;;;;;2.77;2.47;;;22.10;52.00;;;;;;5078519;28;20436;-80
2021/10/17 07:54:13;;;;;;;3.10;2.47;;;22.10;52.50;;;;;;5083392;28;20471;-80
2021/10/17 07:56:38;;;;;;;3.00;2.70;;;22.10;52.00;;;;;;5082893;28;20397;-78
2021/10/17 07:59:10;;;;;;;3.37;2.73;;;22.10;51.90;;;;;;5083438;28;20409;-80
2021/10/17 08:01:41;;;;;;;3.30;2.30;;;22.10;51.80;;;;;;5082409;28;20163;-80
2021/10/17 08:04:10;;;;;;;2.73;2.40;;;22.10;51.90;;;;;;5060229;28;20429;-79
2021/10/17 08:06:39;;;;;;;3.77;3.07;;;22.10;51.90;;;;;;5082205;28;20187;-79
2021/10/17 08:09:16;;;;;;;2.73;2.30;;;22.10;51.90;;;;;;5065269;28;20416;-79
2021/10/17 08:11:42;;;;;;;3.33;2.80;;;22.10;51.90;;;;;;5088699;28;20432;-79
2021/10/17 08:14:42;;;;;;;2.40;2.20;;;22.10;51.90;;;;;;5069824;28;20485;-79
2021/10/17 08:31:06;;;;;;;3.10;2.63;;;22.00;51.80;;;;;;4993050;28;20441;-79
2021/10/17 08:33:32;;;;;;;2.80;2.43;;;21.90;51.80;;;;;;4992867;28;20572;-80
2021/10/17 08:35:58;;;;;;;3.07;2.77;;;22.00;51.90;;;;;;4992754;28;20481;-80
2021/10/17 08:38:23;;;;;;;6.13;3.03;;;22.00;51.80;;;;;;5000156;28;20433;-79
2021/10/17 08:40:56;;;;;;;4.13;2.83;;;22.00;51.80;;;;;;4995926;28;20295;-80
2021/10/17 08:43:22;;;;;;;3.07;2.10;;;22.00;51.80;;;;;;4995923;28;20182;-80
2021/10/17 08:45:48;;;;;;;4.63;3.30;;;22.00;51.80;;;;;;4994865;28;20943;-79
2021/10/17 08:48:14;;;;;;;4.07;3.07;;;22.00;51.80;;;;;;4992303;28;20451;-78
2021/10/17 08:50:41;;;;;;;2.90;2.30;;;22.00;51.80;;;;;;4991338;28;20429;-79
2021/10/17 08:53:07;;;;;;;2.67;2.47;;;22.00;51.80;;;;;;4966235;28;20475;-80
2021/10/17 08:58:54;;;;;;;4.53;2.50;;;22.10;51.90;;;;;;4990617;28;20376;-79
2021/10/17 09:01:20;;;;;;;2.90;2.63;;;22.00;51.80;;;;;;4975407;28;20426;-80
2021/10/17 09:03:58;;;;;;;3.20;2.30;;;22.00;51.90;;;;;;5049943;28;20201;-80
2021/10/17 09:06:27;;;;;;;2.70;2.50;;;22.00;51.80;;;;;;5076439;28;20182;-80
2021/10/17 09:09:15;;;;;;;2.70;2.40;;;22.00;51.90;;;;;;5076616;28;20416;-79
2021/10/17 09:11:49;;;;;;;5.07;3.30;;;22.10;51.90;;;;;;5089065;28;20413;-80
2021/10/17 09:14:15;;;;;;;2.73;2.53;;;22.00;51.90;;;;;;5070380;28;20448;-80
2021/10/17 09:16:47;;;;;;;3.70;2.90;;;22.00;51.90;;;;;;5071789;28;20440;-80
2021/10/17 09:19:14;;;;;;;3.47;3.17;;;22.10;51.90;;;;;;5068961;28;20412;-79
2021/10/17 09:21:57;;;;;;;5.13;3.20;;;22.00;51.90;;;;;;5086109;28;20508;-79
2021/10/17 09:24:28;;;;;;;3.53;3.13;;;22.10;51.90;;;;;;5071559;28;20416;-79
2021/10/17 09:27:04;;;;;;;5.60;2.50;;;22.10;51.90;;;;;;5074680;28;20436;-78
2021/10/17 09:29:32;;;;;;;4.70;3.10;;;22.10;51.90;;;;;;5091942;28;20405;-79
2021/10/17 09:31:58;;;;;;;3.67;2.73;;;22.00;51.80;;;;;;5073974;28;20444;-79
2021/10/17 09:34:29;;;;;;;4.83;2.80;;;22.00;51.80;;;;;;5072297;28;20458;-79
2021/10/17 09:37:12;;;;;;;3.37;2.90;;;22.10;51.90;;;;;;5072698;28;20435;-80
2021/10/17 09:39:46;;;;;;;4.17;3.03;;;22.10;51.90;;;;;;5091534;28;20412;-80
2021/10/17 09:42:20;;;;;;;3.30;2.80;;;22.00;51.80;;;;;;5057616;28;20423;-80
2021/10/17 09:44:46;;;;;;;3.90;2.80;;;22.10;52.00;;;;;;5074690;28;20482;-80
2021/10/17 09:47:12;;;;;;;5.57;2.77;;;22.00;51.90;;;;;;5090926;28;20437;-80
2021/10/17 09:49:38;;;;;;;3.80;3.40;;;22.00;51.90;;;;;;5076675;28;20470;-80
2021/10/17 09:52:13;;;;;;;3.77;2.57;;;22.00;51.90;;;;;;5076382;28;20515;-80
2021/10/17 09:54:40;;;;;;;5.00;3.27;;;22.10;52.00;;;;;;5075647;28;20520;-80
2021/10/17 09:57:07;;;;;;;4.00;2.87;;;22.00;51.90;;;;;;5093050;28;20506;-80
2021/10/17 09:59:35;;;;;;;4.27;3.37;;;22.00;51.90;;;;;;5075614;28;20404;-79
2021/10/17 10:02:06;;;;;;;2.53;2.10;;;22.00;51.90;;;;;;5075621;28;20429;-79
2021/10/17 10:04:40;;;;;;;4.20;2.80;;;22.10;52.00;;;;;;5060686;28;20397;-79
2021/10/17 10:07:07;;;;;;;5.70;2.70;;;22.00;51.90;;;;;;5076945;28;20424;-80
2021/10/17 10:09:34;;;;;;;4.50;2.90;;;22.10;52.00;;;;;;5077092;28;20805;-79
2021/10/17 10:12:03;;;;;;;3.70;3.00;;;22.10;52.00;;;;;;5093726;28;20421;-79
2021/10/17 10:14:32;;;;;;;4.10;2.70;;;22.10;52.00;;;;;;5076068;28;20464;-81
2021/10/17 10:17:00;;;;;;;4.70;2.80;;;22.10;52.00;;;;;;5077274;28;20424;-79
2021/10/17 10:19:26;;;;;;;3.47;3.17;;;22.10;52.00;;;;;;5094033;28;20404;-79
2021/10/17 10:21:55;;;;;;;5.50;3.40;;;22.10;52.00;;;;;;5076430;28;20554;-80
2021/10/17 10:24:21;;;;;;;3.67;3.07;;;22.10;52.00;;;;;;5094327;28;20408;-80
2021/10/17 10:26:52;;;;;;;2.70;2.50;;;22.10;52.00;;;;;;5076890;28;20424;-79
2021/10/17 10:29:45;;;;;;;6.13;2.60;;;22.10;52.00;;;;;;5076489;28;20502;-80
2021/10/17 10:32:26;;;;;;;3.37;2.53;;;22.10;52.00;;;;;;5072560;28;20421;-80
2021/10/17 10:34:56;;;;;;;3.77;3.10;;;22.10;52.00;;;;;;5078755;28;20456;-82
2021/10/17 10:37:25;;;;;;;3.20;2.90;;;22.10;52.10;;;;;;5072748;28;20428;-82
2021/10/17 10:40:00;;;;;;;4.93;2.40;;;22.10;52.10;;;;;;5073848;28;20417;-82
2021/10/17 10:42:42;;;;;;;3.27;2.97;;;22.10;52.10;;;;;;5074469;28;20432;-82
2021/10/17 10:45:20;;;;;;;2.83;2.50;;;22.10;52.10;;;;;;5073749;28;20420;-83
2021/10/17 10:47:50;;;;;;;4.10;3.00;;;22.10;52.10;;;;;;5072070;28;20417;-82
2021/10/17 10:50:33;;;;;;;4.63;2.70;;;22.10;52.10;;;;;;5072096;28;20427;-82
2021/10/17 10:52:59;;;;;;;2.80;2.50;;;22.10;52.10;;;;;;5072027;28;20428;-82
2021/10/17 10:55:54;;;;;;;3.70;2.60;;;22.00;52.10;;;;;;5071836;28;20424;-82
2021/10/17 10:58:25;;;;;;;3.10;2.57;;;22.10;52.10;;;;;;5068484;28;20178;-82
2021/10/17 11:00:54;;;;;;;2.53;2.33;;;22.10;52.20;;;;;;5071549;28;20826;-82
2021/10/17 11:03:21;;;;;;;2.70;2.50;;;22.00;52.10;;;;;;5089784;28;20421;-82
2021/10/17 11:06:05;;;;;;;2.50;2.30;;;22.10;52.20;;;;;;5070895;28;20417;-82
2021/10/17 11:08:38;;;;;;;3.93;2.70;;;22.10;52.20;;;;;;5071274;28;20443;-82
2021/10/17 11:11:05;;;;;;;3.73;2.33;;;22.10;52.20;;;;;;5063086;28;20503;-82
2021/10/17 11:13:40;;;;;;;3.60;2.50;;;22.10;52.20;;;;;;5070350;28;20452;-82
2021/10/17 11:16:18;;;;;;;5.00;2.93;;;22.10;52.30;;;;;;5087424;28;20417;-82
2021/10/17 11:18:44;;;;;;;3.13;2.50;;;22.10;52.20;;;;;;5070763;28;20404;-82
2021/10/17 11:21:09;;;;;;;4.20;2.73;;;22.10;52.20;;;;;;5069712;28;20409;-82
2021/10/17 11:23:38;;;;;;;4.57;3.00;;;22.00;52.20;;;;;;5087240;28;20166;-82
2021/10/17 11:26:07;;;;;;;3.97;2.80;;;22.00;52.20;;;;;;5087392;28;20223;-82
2021/10/17 11:28:35;;;;;;;4.57;2.77;;;22.10;52.30;;;;;;5087779;28;20733;-82
2021/10/17 11:31:15;;;;;;;5.10;2.73;;;22.00;52.20;;;;;;5086694;28;20416;-82
2021/10/17 11:33:42;;;;;;;5.33;2.63;;;22.10;52.30;;;;;;5069459;28;20452;-82
2021/10/17 11:37:29;;;;;;;;;;;;;;;;;;;;;
2021/10/17 11:40:37;;;;;;;4.83;3.03;;;22.10;52.20;;;;;;4974187;28;20448;-82
2021/10/17 11:43:06;;;;;;;4.17;3.00;;;22.10;52.30;;;;;;4986279;28;20441;-82
2021/10/17 11:45:34;;;;;;;4.47;2.70;;;22.00;52.30;;;;;;4987334;28;20508;-82
2021/10/17 11:48:02;;;;;;;4.43;3.90;;;22.00;52.30;;;;;;4986368;28;20492;-82
2021/10/17 11:50:41;;;;;;;3.87;2.57;;;22.10;52.30;;;;;;4986479;28;20416;-81
2021/10/17 11:53:18;;;;;;;5.03;2.97;;;22.10;52.30;;;;;;4969536;28;20456;-82
2021/10/17 11:59:22;;;;;;;5.00;2.47;;;22.10;52.30;;;;;;4901713;29;20424;-83
2021/10/17 12:01:54;;;;;;;4.50;2.60;;;22.10;52.40;;;;;;4913565;29;20429;-82
2021/10/17 12:04:40;;;;;;;4.03;3.00;;;22.10;52.40;;;;;;4913003;29;20424;-82
2021/10/17 12:07:06;;;;;;;3.70;2.47;;;22.10;52.30;;;;;;4898956;29;20428;-82
2021/10/17 12:09:33;;;;;;;2.30;2.10;;;22.10;52.40;;;;;;4913548;29;20500;-80
2021/10/17 12:12:02;;;;;;;5.43;2.80;;;22.10;52.30;;;;;;4900231;29;20433;-80
2021/10/17 12:14:34;;;;;;;5.23;2.63;;;22.10;52.40;;;;;;4905673;29;20457;-80
2021/10/17 12:17:06;;;;;;;3.50;2.33;;;22.10;52.30;;;;;;4968435;29;20442;-79
2021/10/17 12:19:37;;;;;;;3.57;2.83;;;22.10;52.30;;;;;;4978789;29;20421;-79
2021/10/17 12:22:06;;;;;;;2.87;2.57;;;22.10;52.30;;;;;;4979301;29;20414;-80
2021/10/17 12:24:37;;;;;;;4.17;2.60;;;22.10;52.30;;;;;;4979779;29;20418;-80
2021/10/17 12:27:06;;;;;;;4.77;3.40;;;22.10;52.30;;;;;;5053813;28;20411;-80
2021/10/17 12:29:39;;;;;;;4.50;2.50;;;22.10;52.20;;;;;;5098812;28;20420;-80
2021/10/17 12:32:06;;;;;;;4.77;2.50;;;22.10;52.20;;;;;;5095865;28;20420;-81
2021/10/17 12:34:46;;;;;;;2.53;2.23;;;22.10;52.30;;;;;;5093585;28;20531;-81
2021/10/17 12:37:15;;;;;;;5.53;3.00;;;22.10;52.20;;;;;;5094454;28;20500;-81
2021/10/17 12:39:41;;;;;;;3.17;2.10;;;22.10;52.20;;;;;;5075484;28;20846;-81
2021/10/17 12:42:10;;;;;;;3.20;2.30;;;22.10;52.30;;;;;;5076791;28;20417;-81
2021/10/17 12:44:56;;;;;;;2.53;2.33;;;22.10;52.30;;;;;;5076102;28;20178;-80
2021/10/17 12:47:37;;;;;;;5.97;2.33;;;22.10;52.30;;;;;;5076281;28;20492;-80
2021/10/17 12:50:13;;;;;;;2.70;2.27;;;22.10;52.30;;;;;;5076029;28;20412;-80
2021/10/17 12:53:18;;;;;;;3.97;2.60;;;22.10;52.30;;;;;;5094619;28;20403;-81
2021/10/17 12:55:58;;;;;;;3.10;2.43;;;22.10;52.30;;;;;;5094372;28;20431;-82
2021/10/17 12:58:35;;;;;;;2.80;2.40;;;22.10;52.40;;;;;;5075950;28;20411;-80
2021/10/17 13:01:05;;;;;;;3.47;2.30;;;22.10;52.40;;;;;;5074845;28;20417;-82
2021/10/17 13:03:36;;;;;;;4.33;3.00;;;22.10;52.40;;;;;;5074535;28;20413;-81
2021/10/17 13:06:05;;;;;;;2.93;2.40;;;22.10;52.40;;;;;;5093764;28;20389;-82
2021/10/17 13:08:49;;;;;;;2.83;2.40;;;22.10;52.40;;;;;;5074773;28;20409;-81
2021/10/17 13:11:17;;;;;;;2.80;2.60;;;22.10;52.40;;;;;;5093344;28;20429;-80
2021/10/17 13:13:49;;;;;;;3.70;2.43;;;22.10;52.40;;;;;;5075963;28;20464;-80
2021/10/17 13:16:30;;;;;;;3.30;2.30;;;22.10;52.40;;;;;;5075420;28;20444;-81
2021/10/17 13:18:56;;;;;;;2.90;2.30;;;22.10;52.40;;;;;;5067404;28;20416;-80
2021/10/17 13:21:21;;;;;;;4.90;2.73;;;22.10;52.40;;;;;;5075699;28;20404;-81
2021/10/17 13:23:47;;;;;;;3.07;2.73;;;22.10;52.40;;;;;;5074483;28;20174;-81
2021/10/17 13:26:13;;;;;;;4.30;1.93;;;22.10;52.40;;;;;;5074334;28;20567;-81
2021/10/17 13:28:48;;;;;;;3.80;2.70;;;22.10;52.40;;;;;;5075200;28;20181;-80
2021/10/17 13:31:19;;;;;;;3.30;2.70;;;22.10;52.40;;;;;;5099614;28;20557;-81
2021/10/17 13:33:45;;;;;;;3.60;2.50;;;22.10;52.40;;;;;;5091311;28;20472;-81
2021/10/17 13:36:17;;;;;;;4.03;2.47;;;22.10;52.40;;;;;;5068462;28;20443;-81
2021/10/17 13:38:45;;;;;;;5.43;2.23;;;22.10;52.40;;;;;;5094939;28;20251;-81
2021/10/17 13:41:13;;;;;;;6.43;2.80;;;22.10;52.40;;;;;;5070578;28;20433;-81